Time;durP1;ratioP1;P1;durP2;ratioP2;P2;SDS_P1;SDS_P2;PMS_P1;PMS_P2;Temp;Humidity;BMP_temperature;BMP_pressure;BME280_temperature;BME280_humidity;BME280_pressure;Samples;Min_cycle;Max_cycle;Signal;HPM_P1;HPM_P2
2022/09/23 00:00:39;;;;;;;2.38;0.90;;;;;;;12.04;63.08;100434.09;5094113;28;20432;-80
2022/09/23 00:03:04;;;;;;;2.08;0.88;;;;;;;12.08;62.87;100435.03;5094207;28;20458;-80
2022/09/23 00:05:31;;;;;;;1.85;0.82;;;;;;;12.02;63.16;100426.25;5112321;28;20028;-80
2022/09/23 00:07:58;;;;;;;1.92;0.70;;;;;;;12.05;63.11;100427.50;5112744;28;20054;-80
2022/09/23 00:10:25;;;;;;;1.67;0.70;;;;;;;12.22;62.37;100437.44;5093968;28;20392;-80
2022/09/23 00:12:51;;;;;;;3.25;1.17;;;;;;;12.26;62.16;100436.47;5112416;28;20131;-81
2022/09/23 00:15:17;;;;;;;1.98;0.88;;;;;;;12.12;62.65;100430.50;5093993;28;20110;-80
2022/09/23 00:17:43;;;;;;;2.17;0.80;;;;;;;12.04;63.11;100434.09;5093881;28;20058;-80
2022/09/23 00:20:09;;;;;;;2.28;0.88;;;;;;;12.00;63.38;100433.19;5112400;28;20019;-80
2022/09/23 00:22:35;;;;;;;;;;;;;;;12.00;63.33;100425.00;5094602;28;20450;-80
2022/09/23 00:25:02;;;;;;;1.70;0.77;;;;;;;11.99;63.45;100428.88;5112369;28;19939;-79
2022/09/23 00:27:27;;;;;;;2.40;0.77;;;;;;;11.98;63.56;100424.53;5112306;28;20597;-79
2022/09/23 00:29:53;;;;;;;1.55;0.70;;;;;;;11.95;63.66;100420.56;5112312;28;20027;-80
2022/09/23 00:32:18;;;;;;;1.85;0.70;;;;;;;11.97;63.69;100417.50;5094025;28;20035;-80
2022/09/23 00:34:43;;;;;;;1.93;0.80;;;;;;;12.10;63.28;100421.84;5112460;28;20418;-79
2022/09/23 00:37:10;;;;;;;3.33;1.10;;;;;;;12.13;63.20;100423.91;5112199;28;20024;-80
2022/09/23 00:39:35;;;;;;;1.98;0.77;;;;;;;12.23;62.85;100422.66;5112563;28;20019;-79
2022/09/23 00:42:00;;;;;;;2.40;0.60;;;;;;;12.20;62.91;100426.06;5112129;28;20027;-82
2022/09/23 00:44:45;;;;;;;2.60;0.80;;;;;;;12.10;63.35;100429.25;5096022;28;20047;-82
2022/09/23 00:47:28;;;;;;;2.50;0.80;;;;;;;12.12;63.07;100414.13;5116287;28;20035;-82
2022/09/23 00:50:02;;;;;;;2.63;0.88;;;;;;;12.18;62.95;100412.78;5115948;28;20035;-80
2022/09/23 00:52:30;;;;;;;2.05;0.90;;;;;;;12.18;62.92;100412.78;5115899;28;20059;-80
2022/09/23 00:54:57;;;;;;;2.42;0.82;;;;;;;12.45;62.21;100405.09;5115975;28;20089;-82
2022/09/23 00:57:25;;;;;;;3.78;0.88;;;;;;;12.42;62.42;100400.28;5115851;28;20034;-81
2022/09/23 00:59:50;;;;;;;1.80;0.60;;;;;;;12.26;62.81;100403.69;5115792;28;20364;-81
2022/09/23 01:04:51;;;;;;;2.70;0.80;;;;;;;12.24;62.90;100400.47;4449249;22;20509;-85
2022/09/23 01:07:17;;;;;;;2.83;0.70;;;;;;;12.21;63.16;100408.56;5075516;28;20021;-84
2022/09/23 01:09:45;;;;;;;2.17;0.70;;;;;;;12.30;62.89;100398.34;5074898;28;20674;-84
2022/09/23 01:12:31;;;;;;;1.88;0.70;;;;;;;12.28;63.03;100401.44;5075395;28;20051;-86
2022/09/23 01:15:13;;;;;;;4.93;1.05;;;;;;;12.28;63.25;100401.44;5074781;28;20465;-85
2022/09/23 01:18:09;;;;;;;1.65;0.70;;;;;;;12.24;63.27;100394.22;5058071;28;20029;-85
2022/09/23 01:21:02;;;;;;;0.90;0.50;;;;;;;12.25;63.23;100396.63;5056956;28;20020;-86
2022/09/23 01:24:05;;;;;;;1.80;0.70;;;;;;;12.42;62.87;100392.09;5075118;28;20115;-86
2022/09/23 01:26:45;;;;;;;2.10;0.77;;;;;;;12.48;62.43;100388.00;5056877;28;20064;-85
2022/09/23 01:29:16;;;;;;;2.15;0.80;;;;;;;12.60;62.76;100385.28;5074682;28;20389;-86
2022/09/23 01:32:12;;;;;;;2.13;0.90;;;;;;;12.28;63.34;100382.31;5074611;28;20086;-86
2022/09/23 01:34:50;;;;;;;3.95;0.80;;;;;;;12.15;63.81;100382.63;5075082;28;20020;-82
2022/09/23 01:37:25;;;;;;;2.88;1.23;;;;;;;12.48;62.82;100383.34;5057014;28;20120;-83
2022/09/23 01:40:00;;;;;;;2.88;1.42;;;;;;;12.24;63.52;100386.03;5056319;28;20077;-85
2022/09/23 01:42:51;;;;;;;1.83;0.73;;;;;;;12.25;63.70;100379.44;5074814;28;20032;-82
2022/09/23 01:45:27;;;;;;;2.15;0.80;;;;;;;12.07;64.18;100370.66;5029729;28;20041;-82
2022/09/23 01:48:12;;;;;;;2.85;0.90;;;;;;;12.13;63.77;100377.50;5074573;28;20120;-84
2022/09/23 01:50:57;;;;;;;3.05;1.27;;;;;;;12.08;63.79;100369.50;5074435;28;20507;-84
2022/09/23 01:53:30;;;;;;;2.85;1.08;;;;;;;12.17;63.66;100367.50;5074375;28;20028;-83
2022/09/23 01:56:01;;;;;;;3.38;0.85;;;;;;;12.38;62.73;100369.34;5055522;28;20032;-83
2022/09/23 01:58:50;;;;;;;1.75;0.80;;;;;;;12.18;63.35;100368.28;5056237;28;20024;-84
2022/09/23 02:01:24;;;;;;;1.52;0.63;;;;;;;12.19;63.15;100376.16;5073783;28;20024;-84
2022/09/23 02:04:03;;;;;;;1.75;0.63;;;;;;;12.10;62.93;100375.47;5073780;28;20021;-83
2022/09/23 02:06:45;;;;;;;2.80;0.95;;;;;;;12.21;62.42;100368.41;5073815;28;20052;-84
2022/09/23 02:09:15;;;;;;;3.20;0.95;;;;;;;12.25;62.05;100372.03;5074244;28;20021;-85
2022/09/23 02:11:44;;;;;;;3.75;0.80;;;;;;;12.22;62.54;100364.53;5055771;28;20393;-84
2022/09/23 02:14:18;;;;;;;2.30;0.77;;;;;;;12.46;61.32;100365.72;5073652;28;20107;-84
2022/09/23 02:16:47;;;;;;;3.05;0.75;;;;;;;12.58;61.06;100363.75;5073424;28;20027;-84
2022/09/23 02:19:12;;;;;;;3.65;0.60;;;;;;;12.59;60.67;100362.63;5055817;28;20028;-83
2022/09/23 02:21:56;;;;;;;2.73;1.03;;;;;;;12.52;60.75;100361.59;5055764;28;20370;-83
2022/09/23 02:24:27;;;;;;;1.58;0.70;;;;;;;12.56;61.16;100357.84;5074052;28;20051;-86
2022/09/23 02:26:58;;;;;;;2.33;0.80;;;;;;;12.38;61.44;100355.69;5055620;28;20029;-85
2022/09/23 02:29:39;;;;;;;1.48;0.68;;;;;;;12.19;61.62;100354.31;5056060;28;20039;-86
2022/09/23 02:32:11;;;;;;;2.08;0.80;;;;;;;12.02;62.24;100347.13;5056160;28;20135;-85
2022/09/23 02:34:39;;;;;;;1.70;0.85;;;;;;;12.27;61.78;100345.22;5074614;28;20099;-84
2022/09/23 02:37:09;;;;;;;2.33;0.73;;;;;;;12.38;61.23;100348.28;5055322;28;20028;-85
2022/09/23 02:39:50;;;;;;;2.08;0.68;;;;;;;12.24;61.75;100334.97;5073314;28;20051;-83
2022/09/23 02:42:23;;;;;;;2.65;0.68;;;;;;;12.24;62.06;100340.41;5040009;28;20036;-84
2022/09/23 02:44:49;;;;;;;2.15;0.77;;;;;;;12.42;61.27;100340.19;5073389;28;20032;-84
2022/09/23 02:47:18;;;;;;;1.55;0.70;;;;;;;12.29;61.34;100332.03;5072859;28;20028;-83
2022/09/23 02:49:43;;;;;;;1.38;0.60;;;;;;;12.31;61.14;100334.41;5073341;28;20035;-83
2022/09/23 02:52:12;;;;;;;2.60;0.90;;;;;;;12.17;61.67;100323.03;5072901;28;20384;-84
2022/09/23 02:54:39;;;;;;;3.85;1.08;;;;;;;12.18;61.81;100333.59;5054909;28;20395;-85
2022/09/23 02:57:07;;;;;;;3.20;0.80;;;;;;;11.87;62.67;100330.59;5073447;28;20016;-84
2022/09/23 02:59:35;;;;;;;2.35;0.90;;;;;;;11.88;63.22;100327.53;5054920;28;20549;-84
2022/09/23 03:02:25;;;;;;;2.47;1.13;;;;;;;11.75;63.53;100326.66;5072749;28;20441;-84
2022/09/23 03:04:57;;;;;;;2.25;0.75;;;;;;;11.98;62.68;100320.84;5054549;28;20432;-84
2022/09/23 03:07:31;;;;;;;1.95;0.70;;;;;;;12.03;62.96;100317.88;5071654;28;20048;-84
2022/09/23 03:10:24;;;;;;;2.50;0.80;;;;;;;11.79;63.67;100317.84;5072635;28;20020;-84
2022/09/23 03:13:28;;;;;;;1.75;0.65;;;;;;;11.82;63.35;100317.19;5050234;28;20029;-84
2022/09/23 03:16:05;;;;;;;3.97;0.85;;;;;;;11.57;64.79;100321.72;5072877;28;20100;-84
2022/09/23 03:18:39;;;;;;;2.80;0.98;;;;;;;11.56;64.35;100325.59;5072697;28;20020;-84
2022/09/23 03:21:15;;;;;;;1.70;0.77;;;;;;;11.62;63.97;100322.31;5072614;28;20479;-84
2022/09/23 03:23:44;;;;;;;2.78;0.90;;;;;;;11.52;64.44;100314.56;5070530;28;20036;-85
2022/09/23 03:26:16;;;;;;;2.22;0.70;;;;;;;11.54;64.49;100317.75;5054737;28;20043;-85
2022/09/23 03:28:44;;;;;;;2.38;0.80;;;;;;;11.57;64.24;100319.78;5072453;28;20166;-84
2022/09/23 03:31:12;;;;;;;4.78;0.95;;;;;;;11.81;63.73;100312.84;5072643;28;20040;-86
2022/09/23 03:33:41;;;;;;;2.13;0.70;;;;;;;11.72;63.75;100305.53;5072376;28;20083;-85
2022/09/23 03:39:04;;;;;;;1.95;0.77;;;;;;;11.84;63.22;100306.72;5072733;28;20059;-84
2022/09/23 03:41:39;;;;;;;1.92;0.77;;;;;;;11.66;64.11;100303.34;5072714;28;20025;-86
2022/09/23 03:44:06;;;;;;;2.00;0.70;;;;;;;11.68;64.09;100301.09;5072761;28;20036;-85
2022/09/23 03:46:34;;;;;;;3.20;0.90;;;;;;;11.83;63.57;100303.19;5054347;28;20024;-84
2022/09/23 03:49:11;;;;;;;2.25;0.75;;;;;;;11.54;64.93;100312.28;5072230;28;20091;-84
2022/09/23 03:51:37;;;;;;;1.83;0.70;;;;;;;11.49;64.72;100306.25;5053969;28;20361;-84
2022/09/23 03:54:02;;;;;;;1.58;0.70;;;;;;;11.49;64.89;100307.06;5053858;28;20025;-84
2022/09/23 03:56:27;;;;;;;3.93;0.60;;;;;;;11.41;65.22;100305.19;5071819;28;20119;-83
2022/09/23 03:58:53;;;;;;;3.20;0.83;;;;;;;11.42;64.84;100296.72;5071920;28;20051;-83
2022/09/23 04:01:18;;;;;;;2.20;0.80;;;;;;;11.42;65.38;100298.59;5072133;28;20115;-84
2022/09/23 04:03:43;;;;;;;2.67;0.70;;;;;;;11.40;65.32;100298.16;5071924;28;20070;-84
2022/09/23 04:06:08;;;;;;;1.77;0.77;;;;;;;11.38;65.49;100295.75;5071628;28;20061;-84
2022/09/23 04:08:34;;;;;;;3.63;0.97;;;;;;;11.53;64.99;100291.59;5071802;28;20267;-84
2022/09/23 04:11:01;;;;;;;3.15;0.80;;;;;;;11.45;65.71;100292.50;5053917;28;20025;-84
2022/09/23 04:13:28;;;;;;;1.95;0.90;;;;;;;11.40;65.68;100292.69;5053763;28;20477;-83
2022/09/23 04:15:53;;;;;;;1.58;0.63;;;;;;;11.36;65.87;100294.50;5072261;28;20492;-83
2022/09/23 04:18:20;;;;;;;3.35;1.10;;;;;;;11.59;65.00;100276.66;5054396;28;20108;-84
2022/09/23 04:20:45;;;;;;;2.15;0.80;;;;;;;11.62;64.67;100277.91;5057952;28;20032;-83
2022/09/23 04:23:11;;;;;;;2.13;0.82;;;;;;;11.60;65.12;100274.72;5058043;28;20404;-84
2022/09/23 04:25:46;;;;;;;2.63;0.80;;;;;;;11.72;65.06;100274.72;5076152;28;20477;-83
2022/09/23 04:28:12;;;;;;;2.92;0.80;;;;;;;11.62;64.93;100270.50;5076010;28;20028;-83
2022/09/23 04:30:42;;;;;;;3.67;0.80;;;;;;;11.44;65.94;100261.72;5075783;28;20481;-87
2022/09/23 04:33:12;;;;;;;1.60;0.70;;;;;;;11.37;65.99;100269.63;5075726;28;20454;-83
2022/09/23 04:35:38;;;;;;;1.50;0.70;;;;;;;11.32;66.55;100267.13;5057752;28;20051;-84
2022/09/23 04:38:05;;;;;;;1.98;0.73;;;;;;;11.26;66.52;100273.13;5075577;28;20183;-84
2022/09/23 04:40:31;;;;;;;2.13;0.82;;;;;;;11.20;66.91;100269.78;5075723;28;20032;-86
2022/09/23 04:42:56;;;;;;;2.50;0.98;;;;;;;11.19;66.50;100268.22;5075823;28;20047;-84
2022/09/23 04:45:22;;;;;;;2.67;1.10;;;;;;;11.21;66.85;100262.41;5075710;28;20090;-83
2022/09/23 04:47:47;;;;;;;2.40;0.80;;;;;;;11.42;65.95;100250.34;5076177;28;20029;-83
2022/09/23 04:50:12;;;;;;;3.15;0.82;;;;;;;11.29;66.36;100254.16;5075403;28;20594;-85
2022/09/23 04:52:38;;;;;;;2.42;0.90;;;;;;;11.33;66.85;100249.63;5075655;28;20452;-83
2022/09/23 04:55:04;;;;;;;1.87;0.80;;;;;;;11.49;65.88;100249.78;5075448;28;20385;-82
2022/09/23 04:57:29;;;;;;;2.33;0.70;;;;;;;11.72;64.90;100247.44;5056672;28;20025;-84
2022/09/23 04:59:56;;;;;;;1.80;0.80;;;;;;;11.64;65.60;100246.41;5075031;28;20039;-82
2022/09/23 05:02:22;;;;;;;1.83;0.82;;;;;;;11.42;66.40;100252.25;5075740;28;20051;-82
2022/09/23 05:04:47;;;;;;;2.75;1.08;;;;;;;11.36;66.19;100248.16;5056730;28;20064;-86
2022/09/23 05:07:12;;;;;;;3.40;1.17;;;;;;;11.37;67.06;100245.09;5057211;28;20025;-85
2022/09/23 05:09:38;;;;;;;3.35;0.95;;;;;;;11.55;66.08;100245.69;5056932;28;20031;-84
2022/09/23 05:12:03;;;;;;;4.53;0.90;;;;;;;11.30;66.92;100241.34;5075714;28;20119;-85
2022/09/23 05:14:31;;;;;;;2.17;0.90;;;;;;;11.23;68.08;100258.22;5074957;28;20274;-82
2022/09/23 05:16:57;;;;;;;3.15;0.90;;;;;;;11.03;68.10;100261.78;5056374;28;20028;-82
2022/09/23 05:19:22;;;;;;;1.97;0.83;;;;;;;10.97;68.79;100263.91;5056461;28;20386;-83
2022/09/23 05:21:47;;;;;;;2.93;1.00;;;;;;;10.93;68.87;100263.00;5056576;28;20036;-83
2022/09/23 05:24:13;;;;;;;2.57;0.93;;;;;;;10.86;69.07;100260.00;5056321;28;20112;-83
2022/09/23 05:26:38;;;;;;;3.17;1.05;;;;;;;10.93;69.43;100260.28;5074196;28;20099;-83
2022/09/23 05:29:04;;;;;;;2.17;0.82;;;;;;;10.97;68.73;100254.94;5056797;28;20115;-83
2022/09/23 05:31:29;;;;;;;2.47;0.98;;;;;;;10.94;68.97;100255.63;5055308;28;20024;-82
2022/09/23 05:34:00;;;;;;;1.98;0.80;;;;;;;10.93;69.24;100259.47;5056492;28;20056;-82
2022/09/23 05:36:27;;;;;;;2.58;1.00;;;;;;;10.97;69.13;100260.41;5056657;28;20043;-81
2022/09/23 05:38:55;;;;;;;2.92;1.13;;;;;;;10.93;69.22;100254.03;5074288;28;20029;-82
2022/09/23 05:41:22;;;;;;;3.78;1.02;;;;;;;10.87;69.90;100261.59;5074291;28;20028;-82
2022/09/23 05:43:50;;;;;;;3.45;1.20;;;;;;;10.87;69.53;100258.06;5056369;28;20495;-81
2022/09/23 05:46:18;;;;;;;2.20;0.80;;;;;;;10.97;69.76;100263.91;5074453;28;20032;-81
2022/09/23 05:48:46;;;;;;;2.70;1.02;;;;;;;10.99;69.19;100264.38;5074640;28;20024;-81
2022/09/23 05:51:18;;;;;;;2.58;0.90;;;;;;;10.91;69.77;100262.50;5074302;28;20112;-81
2022/09/23 05:53:44;;;;;;;3.08;1.10;;;;;;;10.91;69.95;100261.72;5073961;28;20028;-81
2022/09/23 05:56:16;;;;;;;2.80;1.02;;;;;;;10.90;69.70;100260.91;5074179;28;20476;-81
2022/09/23 05:58:41;;;;;;;3.03;1.13;;;;;;;10.87;69.74;100268.97;5073620;28;20036;-82
2022/09/23 06:01:13;;;;;;;2.33;1.10;;;;;;;10.94;69.71;100261.06;5039102;28;20029;-81
2022/09/23 06:03:39;;;;;;;2.97;1.80;;;;;;;10.95;69.44;100262.66;5055705;28;20044;-82
2022/09/23 06:06:05;;;;;;;1.90;0.95;;;;;;;11.00;69.71;100265.97;5073684;28;20401;-81
2022/09/23 06:08:33;;;;;;;4.97;1.00;;;;;;;11.17;70.78;100258.78;5056222;28;20028;-82
2022/09/23 06:11:05;;;;;;;3.40;1.00;;;;;;;11.28;70.22;100263.47;5056071;28;20055;-82
2022/09/23 06:13:34;;;;;;;5.22;1.23;;;;;;;11.34;70.11;100251.22;5074197;28;20028;-81
2022/09/23 06:16:00;;;;;;;3.17;1.20;;;;;;;11.32;69.04;100266.31;5055722;28;20039;-81
2022/09/23 06:18:25;;;;;;;3.42;1.50;;;;;;;11.34;68.85;100253.16;5073338;28;20397;-81
2022/09/23 06:20:50;;;;;;;3.40;1.23;;;;;;;11.41;69.14;100258.84;5073548;28;20507;-82
2022/09/23 06:23:16;;;;;;;2.90;1.10;;;;;;;11.45;68.11;100248.88;5073962;28;20465;-82
2022/09/23 06:25:41;;;;;;;3.95;1.00;;;;;;;11.48;68.54;100248.19;5055246;28;20894;-81
2022/09/23 06:28:10;;;;;;;2.90;0.73;;;;;;;11.56;67.59;100257.41;5055373;28;20024;-81
2022/09/23 06:30:36;;;;;;;2.40;1.08;;;;;;;11.52;68.07;100262.75;5073055;28;20743;-80
2022/09/23 06:33:01;;;;;;;2.40;1.10;;;;;;;11.61;67.75;100259.94;5073750;28;20039;-83
2022/09/23 06:35:27;;;;;;;2.23;0.90;;;;;;;11.77;66.64;100260.88;5055599;28;20020;-82
2022/09/23 06:37:53;;;;;;;2.33;1.10;;;;;;;12.02;66.18;100254.31;5073661;28;20270;-82
2022/09/23 06:40:19;;;;;;;4.05;0.80;;;;;;;12.08;66.26;100259.53;5055327;28;20087;-82
2022/09/23 06:42:46;;;;;;;2.90;0.93;;;;;;;12.03;65.91;100252.38;5055793;28;20127;-82
2022/09/23 06:45:13;;;;;;;2.80;0.90;;;;;;;11.97;66.33;100262.75;5055509;28;20111;-82
2022/09/23 06:47:44;;;;;;;2.22;0.90;;;;;;;12.33;65.24;100259.22;5073961;28;20337;-81
2022/09/23 06:50:13;;;;;;;2.90;1.20;;;;;;;12.29;64.56;100252.84;5056490;28;20028;-82
2022/09/23 06:52:38;;;;;;;3.25;1.50;;;;;;;12.51;64.41;100253.50;5073780;28;20028;-81
2022/09/23 06:55:04;;;;;;;2.93;1.03;;;;;;;12.42;64.92;100261.00;5055716;28;20066;-83
2022/09/23 06:57:31;;;;;;;2.65;1.02;;;;;;;12.57;63.73;100252.91;5073598;28;20355;-83
2022/09/23 06:59:58;;;;;;;1.90;0.80;;;;;;;12.51;63.84;100256.22;5055410;28;20521;-82
2022/09/23 07:02:25;;;;;;;3.30;1.08;;;;;;;12.58;63.95;100261.91;5073579;28;20028;-82
2022/09/23 07:04:50;;;;;;;3.63;0.93;;;;;;;12.74;62.76;100260.03;5073240;28;20044;-83
2022/09/23 07:07:17;;;;;;;1.98;0.75;;;;;;;12.87;62.26;100256.13;5073700;28;20030;-83
2022/09/23 07:09:43;;;;;;;2.08;0.70;;;;;;;13.02;61.97;100262.81;5073959;28;20028;-85
2022/09/23 07:12:09;;;;;;;3.92;1.23;;;;;;;13.02;61.77;100268.28;5073946;28;20116;-85
2022/09/23 07:14:34;;;;;;;2.92;1.15;;;;;;;13.10;61.41;100261.06;5074134;28;20032;-83
2022/09/23 07:16:59;;;;;;;2.30;0.87;;;;;;;13.21;61.47;100260.25;5055249;28;20366;-83
2022/09/23 07:19:25;;;;;;;1.27;0.63;;;;;;;13.11;61.78;100258.00;5055179;28;20108;-83
2022/09/23 07:21:51;;;;;;;2.42;0.90;;;;;;;13.26;61.42;100264.66;5055520;28;20032;-82
2022/09/23 07:24:16;;;;;;;5.47;1.20;;;;;;;13.36;61.20;100260.66;5073725;28;20036;-83
2022/09/23 07:26:44;;;;;;;2.50;0.80;;;;;;;13.15;61.93;100258.91;5055792;28;20028;-83
2022/09/23 07:29:12;;;;;;;2.47;0.82;;;;;;;13.21;62.65;100262.19;5073614;28;20024;-81
2022/09/23 07:31:38;;;;;;;3.60;1.30;;;;;;;13.25;62.35;100258.41;5073201;28;20028;-82
2022/09/23 07:34:04;;;;;;;4.55;1.23;;;;;;;13.31;61.97;100264.44;5072773;28;20166;-82
2022/09/23 07:36:32;;;;;;;4.03;1.00;;;;;;;13.35;61.86;100268.06;5055089;28;20035;-82
2022/09/23 07:39:01;;;;;;;2.05;0.95;;;;;;;13.28;61.34;100265.13;5074197;28;20024;-83
2022/09/23 07:41:27;;;;;;;3.08;1.02;;;;;;;13.30;61.13;100264.78;5056091;28;20069;-82
2022/09/23 07:43:55;;;;;;;2.88;0.90;;;;;;;13.24;61.92;100273.22;5073473;28;20025;-85
2022/09/23 07:46:21;;;;;;;2.28;1.00;;;;;;;13.35;61.66;100265.31;5073684;28;20469;-82
2022/09/23 07:48:46;;;;;;;2.70;0.85;;;;;;;13.41;61.39;100272.13;5073608;28;20025;-83
2022/09/23 07:51:22;;;;;;;2.28;0.93;;;;;;;13.58;61.19;100273.75;5073709;28;20035;-83
2022/09/23 07:53:52;;;;;;;4.10;1.23;;;;;;;13.39;61.57;100274.41;5073037;28;20031;-82
2022/09/23 07:56:19;;;;;;;2.42;1.15;;;;;;;13.51;60.67;100270.81;5073699;28;20078;-82
2022/09/23 07:58:58;;;;;;;3.05;1.42;;;;;;;13.54;60.98;100273.66;5073702;28;20028;-81
2022/09/23 08:01:25;;;;;;;4.25;1.33;;;;;;;13.63;61.91;100278.19;5071189;28;20052;-82
2022/09/23 08:03:51;;;;;;;2.45;1.00;;;;;;;13.72;60.61;100273.31;5073270;28;20059;-82
2022/09/23 08:06:16;;;;;;;3.50;1.30;;;;;;;13.61;61.09;100267.59;5072765;28;20053;-85
2022/09/23 08:08:45;;;;;;;3.00;1.23;;;;;;;13.69;61.07;100271.28;5073107;28;20024;-83
2022/09/23 08:11:13;;;;;;;3.35;0.80;;;;;;;13.69;60.65;100274.03;5055095;28;20040;-85
2022/09/23 08:13:40;;;;;;;4.22;1.27;;;;;;;13.69;61.21;100272.09;5054502;28;20043;-84
2022/09/23 08:16:05;;;;;;;3.30;1.13;;;;;;;13.70;60.75;100278.34;5073218;28;20028;-84
2022/09/23 08:18:31;;;;;;;3.33;1.15;;;;;;;13.73;61.04;100280.38;5074411;28;20023;-82
2022/09/23 08:20:57;;;;;;;4.13;1.13;;;;;;;13.70;61.68;100281.09;5071170;28;20484;-86
2022/09/23 08:23:22;;;;;;;2.00;0.80;;;;;;;13.68;62.15;100286.91;5072325;28;20025;-82
2022/09/23 08:25:47;;;;;;;2.80;1.10;;;;;;;13.73;61.69;100280.38;5053846;28;20834;-81
2022/09/23 08:28:15;;;;;;;3.23;1.27;;;;;;;13.75;61.48;100278.88;5072052;28;20278;-82
2022/09/23 08:30:43;;;;;;;2.65;1.10;;;;;;;13.77;61.84;100278.53;5054302;28;20286;-82
2022/09/23 08:33:12;;;;;;;4.68;1.48;;;;;;;13.81;61.66;100280.22;5073923;28;20058;-83
2022/09/23 08:35:39;;;;;;;3.10;1.27;;;;;;;13.87;62.03;100272.53;5071168;28;20037;-82
2022/09/23 08:38:04;;;;;;;;;;;;;;;13.88;61.54;100273.34;5073040;28;20397;-80
2022/09/23 08:40:34;;;;;;;3.38;1.25;;;;;;;13.78;61.65;100269.19;5075178;28;19935;-84
2022/09/23 08:43:01;;;;;;;3.00;1.40;;;;;;;13.92;61.23;100266.78;5075054;28;20435;-83
2022/09/23 08:45:27;;;;;;;3.03;1.38;;;;;;;13.90;61.56;100271.03;5054886;28;20037;-82
2022/09/23 08:48:25;;;;;;;;;;;;;;;13.96;61.69;100267.69;5073669;28;20017;-80
2022/09/23 08:50:57;;;;;;;2.20;0.90;;;;;;;14.19;60.91;100265.13;5028064;28;19912;-82
2022/09/23 08:53:28;;;;;;;4.80;1.30;;;;;;;14.34;60.34;100267.03;5072727;28;20099;-84
2022/09/23 08:55:59;;;;;;;2.83;1.23;;;;;;;14.45;60.37;100270.06;5055617;28;20051;-82
2022/09/23 08:58:33;;;;;;;3.25;1.20;;;;;;;14.35;60.05;100254.94;5053891;28;20481;-82
2022/09/23 09:01:27;;;;;;;4.35;1.05;;;;;;;14.43;60.39;100262.19;5053975;28;20398;-83
2022/09/23 09:04:02;;;;;;;4.30;0.90;;;;;;;14.32;60.40;100261.13;5048367;28;20123;-83
2022/09/23 09:06:50;;;;;;;3.35;1.45;;;;;;;14.31;60.25;100258.75;5051837;28;20459;-83
2022/09/23 09:09:28;;;;;;;3.05;1.27;;;;;;;14.33;60.58;100264.66;5075713;28;20159;-83
2022/09/23 09:12:09;;;;;;;2.15;0.98;;;;;;;14.27;60.05;100255.09;5076537;28;20024;-85
2022/09/23 09:14:58;;;;;;;2.72;1.10;;;;;;;14.22;60.30;100271.81;5076709;28;20024;-83
2022/09/23 09:17:47;;;;;;;3.22;1.33;;;;;;;14.27;60.32;100258.63;5057631;28;20028;-84
2022/09/23 09:20:56;;;;;;;3.47;1.30;;;;;;;14.28;59.88;100267.69;5075963;28;20070;-81
2022/09/23 09:23:38;;;;;;;5.60;1.58;;;;;;;14.29;60.67;100258.31;5057601;28;20027;-81
2022/09/23 09:26:05;;;;;;;4.03;1.65;;;;;;;14.43;60.15;100262.19;5075357;28;20024;-82
2022/09/23 09:28:39;;;;;;;3.33;1.40;;;;;;;14.44;60.46;100261.06;5075252;28;20025;-82
2022/09/23 09:31:22;;;;;;;5.00;1.48;;;;;;;14.49;60.05;100262.72;5057759;28;20035;-83
2022/09/23 09:34:19;;;;;;;3.38;1.10;;;;;;;14.52;58.60;100248.28;5075647;28;20523;-81
2022/09/23 09:36:48;;;;;;;2.97;1.00;;;;;;;14.64;60.10;100261.88;5076256;28;20024;-81
2022/09/23 09:39:15;;;;;;;3.03;1.33;;;;;;;14.69;58.16;100252.56;5075933;28;20021;-81
2022/09/23 09:41:46;;;;;;;2.33;0.98;;;;;;;15.01;57.16;100253.25;5058163;28;20024;-83
2022/09/23 09:44:46;;;;;;;2.58;0.93;;;;;;;15.12;58.04;100259.75;5074871;28;20028;-82
2022/09/23 09:47:13;;;;;;;4.10;1.00;;;;;;;15.15;57.22;100252.75;5069854;28;20040;-83
2022/09/23 09:49:59;;;;;;;2.90;0.98;;;;;;;15.06;56.63;100255.69;5075794;28;20032;-84
2022/09/23 09:52:28;;;;;;;3.47;1.00;;;;;;;15.13;56.95;100255.06;5057893;28;20491;-83
2022/09/23 09:54:59;;;;;;;3.50;1.33;;;;;;;15.12;56.03;100248.78;5075415;28;20020;-82
2022/09/23 09:57:51;;;;;;;3.25;1.00;;;;;;;15.12;56.86;100246.03;5056980;28;20493;-84
2022/09/23 10:00:25;;;;;;;3.83;0.90;;;;;;;15.28;55.63;100244.00;5056310;28;20032;-83
2022/09/23 10:03:23;;;;;;;13.40;1.90;;;;;;;15.24;56.11;100237.63;5074760;28;20108;-82
2022/09/23 10:05:49;;;;;;;;;;;;;;;15.26;56.73;100243.53;5074855;28;20135;-80
2022/09/23 10:08:18;;;;;;;2.92;1.10;;;;;;;15.28;56.47;100240.44;5056770;28;19908;-86
2022/09/23 10:11:08;;;;;;;3.00;1.15;;;;;;;15.41;55.81;100243.81;5056182;28;20064;-83
2022/09/23 10:13:34;;;;;;;2.35;1.05;;;;;;;15.53;57.58;100236.22;5074113;28;20032;-81
2022/09/23 10:16:02;;;;;;;2.67;1.00;;;;;;;15.47;54.47;100242.38;5055528;28;20017;-83
2022/09/23 10:18:46;;;;;;;1.88;0.77;;;;;;;15.55;54.82;100239.38;5074067;28;20153;-81
2022/09/23 10:21:16;;;;;;;4.55;1.42;;;;;;;15.72;53.71;100224.41;5055992;28;20481;-84
2022/09/23 10:23:51;;;;;;;2.30;1.00;;;;;;;15.80;53.70;100228.09;5056515;28;20534;-83
2022/09/23 10:26:25;;;;;;;2.75;1.08;;;;;;;15.68;53.52;100225.53;5055818;28;20111;-83
2022/09/23 10:28:54;;;;;;;2.72;1.00;;;;;;;15.83;53.58;100228.13;5055888;28;20035;-83
2022/09/23 10:31:29;;;;;;;2.92;1.08;;;;;;;15.92;53.68;100225.91;5056134;28;20393;-83
2022/09/23 10:33:59;;;;;;;2.60;1.08;;;;;;;15.95;53.03;100232.63;5073943;28;20029;-86
2022/09/23 10:36:29;;;;;;;2.13;1.10;;;;;;;15.98;53.29;100231.91;5055228;28;20037;-84
2022/09/23 10:48:40;;;;;;;3.22;1.00;;;;;;;15.85;54.05;100220.31;4972855;28;20093;-81
2022/09/23 10:51:46;;;;;;;5.63;2.20;;;;;;;16.03;53.85;100217.84;5073666;28;20028;-82
2022/09/23 10:54:41;;;;;;;7.93;1.40;;;;;;;16.20;54.02;100216.53;5072932;28;20020;-84
2022/09/23 10:57:39;;;;;;;3.35;1.15;;;;;;;16.20;53.39;100225.56;5073839;28;20085;-83
2022/09/23 11:00:07;;;;;;;2.78;1.00;;;;;;;16.12;52.52;100212.88;5074899;28;20104;-86
2022/09/23 11:02:52;;;;;;;3.60;1.38;;;;;;;16.09;53.99;100212.84;5073910;28;20051;-85
2022/09/23 11:05:54;;;;;;;2.33;0.90;;;;;;;16.06;52.60;100203.38;5072934;28;20500;-82
2022/09/23 11:08:23;;;;;;;3.00;0.90;;;;;;;16.22;52.49;100204.03;4991855;28;20037;-85
2022/09/23 11:11:28;;;;;;;2.55;0.90;;;;;;;16.23;52.00;100199.31;5041825;28;20033;-83
2022/09/23 11:14:14;;;;;;;6.05;2.13;;;;;;;16.31;52.81;100198.28;5073219;28;20036;-83
2022/09/23 11:17:13;;;;;;;3.47;1.30;;;;;;;16.24;51.90;100189.91;5073662;28;20037;-87
2022/09/23 11:20:02;;;;;;;3.63;0.80;;;;;;;16.24;52.13;100195.41;5055185;28;20028;-85
2022/09/23 11:22:39;;;;;;;2.22;0.90;;;;;;;16.27;52.63;100186.41;5073348;28;20108;-84
2022/09/23 11:25:26;;;;;;;2.63;0.93;;;;;;;16.42;51.09;100187.41;5072642;28;20028;-84
2022/09/23 11:28:10;;;;;;;2.65;0.98;;;;;;;16.27;51.76;100178.19;5054531;28;20034;-83
2022/09/23 11:31:00;;;;;;;3.05;1.10;;;;;;;16.43;51.13;100181.53;5072994;28;20105;-82
2022/09/23 11:33:47;;;;;;;4.07;1.00;;;;;;;16.54;51.06;100176.19;5073087;28;20393;-85
2022/09/23 11:36:42;;;;;;;2.55;1.00;;;;;;;16.85;50.55;100175.03;5055100;28;20024;-82
2022/09/23 11:39:31;;;;;;;2.58;0.93;;;;;;;16.87;50.07;100180.16;5070981;28;20028;-81
2022/09/23 11:42:00;;;;;;;2.38;0.85;;;;;;;16.91;50.97;100179.03;5072433;28;20028;-81
2022/09/23 11:44:34;;;;;;;3.05;1.08;;;;;;;17.12;51.24;100183.97;5072369;28;20021;-80
2022/09/23 11:47:10;;;;;;;3.47;1.02;;;;;;;17.10;50.15;100173.34;5069764;28;20056;-84
2022/09/23 11:49:55;;;;;;;3.67;1.10;;;;;;;16.98;49.63;100167.31;5054496;28;20024;-81
2022/09/23 11:52:30;;;;;;;2.75;1.00;;;;;;;16.99;50.14;100166.94;5072179;28;20039;-81
2022/09/23 11:55:23;;;;;;;5.15;1.25;;;;;;;17.12;49.41;100172.94;5072386;28;20021;-80
2022/09/23 11:58:17;;;;;;;2.50;1.08;;;;;;;17.24;49.30;100174.66;5072431;28;20033;-80
2022/09/23 12:00:51;;;;;;;2.80;0.93;;;;;;;17.55;48.41;100165.91;5072278;28;20032;-80
2022/09/23 12:03:49;;;;;;;2.70;0.90;;;;;;;17.39;49.24;100170.88;5072192;28;20025;-79
2022/09/23 12:06:37;;;;;;;2.63;1.00;;;;;;;17.35;49.50;100168.09;5062973;28;20041;-83